Time;durP1;ratioP1;P1;durP2;ratioP2;P2;SDS_P1;SDS_P2;PMS_P1;PMS_P2;Temp;Humidity;BMP_temperature;BMP_pressure;BME280_temperature;BME280_humidity;BME280_pressure;Samples;Min_cycle;Max_cycle;Signal;HPM_P1;HPM_P2
2022/01/17 00:02:08;;;;;;;26.77;15.57;;;7.90;99.90;;;;;;5029773;28;20017;-65
2022/01/17 00:04:34;;;;;;;21.60;14.27;;;8.00;99.90;;;;;;5028521;28;20545;-65
2022/01/17 00:06:59;;;;;;;26.27;15.02;;;8.00;99.90;;;;;;5033649;28;20063;-65
2022/01/17 00:09:26;;;;;;;27.10;15.30;;;7.90;99.90;;;;;;5017518;28;20065;-65
2022/01/17 00:11:52;;;;;;;27.67;16.00;;;7.90;99.90;;;;;;5014188;28;20033;-65
2022/01/17 00:14:22;;;;;;;25.70;15.32;;;8.00;99.90;;;;;;5026222;28;20038;-65
2022/01/17 00:17:06;;;;;;;27.98;15.70;;;7.90;99.90;;;;;;5033393;28;20056;-65
2022/01/17 00:19:39;;;;;;;25.15;14.35;;;7.90;99.90;;;;;;5032409;28;20391;-65
2022/01/17 00:22:04;;;;;;;22.65;13.63;;;8.00;99.90;;;;;;5017436;28;20025;-65
2022/01/17 00:24:30;;;;;;;23.40;12.70;;;7.90;99.90;;;;;;5017098;28;20038;-64
2022/01/17 00:26:56;;;;;;;25.23;13.75;;;8.00;99.90;;;;;;5014528;28;20021;-65
2022/01/17 00:29:21;;;;;;;20.77;12.95;;;8.00;99.90;;;;;;5024813;28;20504;-65
2022/01/17 00:31:47;;;;;;;26.58;13.63;;;8.00;99.90;;;;;;5033383;28;20018;-64
2022/01/17 00:34:13;;;;;;;24.25;13.82;;;8.00;99.90;;;;;;5031328;28;20124;-64
2022/01/17 00:36:38;;;;;;;19.83;12.50;;;7.90;99.90;;;;;;5030950;28;20678;-64
2022/01/17 00:39:04;;;;;;;22.83;12.43;;;8.00;99.90;;;;;;5024662;28;20029;-64
2022/01/17 00:41:29;;;;;;;21.00;11.77;;;8.00;99.90;;;;;;5031780;28;20061;-65
2022/01/17 00:43:55;;;;;;;22.70;12.68;;;8.00;99.80;;;;;;5031009;28;20025;-65
2022/01/17 00:46:21;;;;;;;20.95;12.00;;;8.00;99.80;;;;;;5033380;28;20121;-64
2022/01/17 00:48:46;;;;;;;22.60;11.85;;;8.10;99.80;;;;;;5023295;28;20033;-65
2022/01/17 00:51:12;;;;;;;22.67;13.23;;;8.10;99.60;;;;;;5025733;28;20416;-64
2022/01/17 00:53:37;;;;;;;22.23;11.52;;;8.10;99.60;;;;;;5026018;28;20026;-64
2022/01/17 00:56:04;;;;;;;19.30;10.85;;;8.10;99.60;;;;;;5022456;28;20035;-64
2022/01/17 00:58:30;;;;;;;23.60;11.43;;;8.10;99.50;;;;;;5018872;28;20091;-64
2022/01/17 01:00:55;;;;;;;20.75;11.32;;;8.20;99.50;;;;;;5031051;28;20103;-64
2022/01/17 01:03:21;;;;;;;19.48;10.60;;;8.20;99.40;;;;;;5031012;28;20600;-64
2022/01/17 01:05:47;;;;;;;21.55;11.88;;;8.20;99.40;;;;;;5032408;28;20060;-64
2022/01/17 01:08:13;;;;;;;19.38;11.13;;;8.20;99.30;;;;;;5031712;28;20010;-64
2022/01/17 01:10:38;;;;;;;23.52;11.50;;;8.20;99.40;;;;;;5032374;28;20535;-65
2022/01/17 01:13:04;;;;;;;19.25;10.95;;;8.20;99.30;;;;;;5027786;28;20092;-64
2022/01/17 01:18:38;;;;;;;18.48;10.95;;;8.20;99.20;;;;;;5030821;28;20029;-64
2022/01/17 01:21:37;;;;;;;17.20;10.82;;;8.20;99.20;;;;;;5030872;28;20104;-64
2022/01/17 01:29:21;;;;;;;13.73;8.77;;;8.30;99.00;;;;;;5030337;28;20034;-64
2022/01/17 01:31:52;;;;;;;21.98;10.27;;;8.30;99.10;;;;;;5011781;28;20037;-65
2022/01/17 01:34:21;;;;;;;16.30;9.20;;;8.30;99.00;;;;;;5014901;28;20076;-65
2022/01/17 01:36:48;;;;;;;15.52;8.48;;;8.30;98.90;;;;;;5012938;28;20084;-65
2022/01/17 01:39:21;;;;;;;17.42;8.60;;;8.30;99.00;;;;;;5024712;28;20104;-65
2022/01/17 01:41:47;;;;;;;13.32;7.43;;;8.30;98.90;;;;;;5020401;28;20444;-66
2022/01/17 01:44:15;;;;;;;14.02;7.60;;;8.30;98.90;;;;;;5023954;28;20029;-65
2022/01/17 01:46:42;;;;;;;15.70;8.05;;;8.30;98.90;;;;;;5021426;28;20034;-65
2022/01/17 01:49:07;;;;;;;14.15;7.45;;;8.30;98.90;;;;;;5015382;28;20030;-65
2022/01/17 01:51:33;;;;;;;11.68;6.70;;;8.20;98.80;;;;;;5011963;28;20026;-64
2022/01/17 01:53:58;;;;;;;10.93;5.55;;;8.20;98.60;;;;;;5012463;28;20076;-64
2022/01/17 01:56:24;;;;;;;12.32;5.53;;;8.20;98.60;;;;;;5011743;28;20621;-64
2022/01/17 01:58:49;;;;;;;12.48;5.88;;;8.20;98.70;;;;;;5020206;28;20033;-64
2022/01/17 02:01:15;;;;;;;11.02;4.35;;;8.10;98.50;;;;;;5031453;28;20045;-64
2022/01/17 02:03:40;;;;;;;7.40;4.20;;;8.20;98.30;;;;;;5029792;28;20112;-64
2022/01/17 02:06:06;;;;;;;6.85;3.47;;;8.10;98.30;;;;;;5012067;28;20045;-64
2022/01/17 02:08:31;;;;;;;6.03;3.42;;;8.20;98.20;;;;;;5012797;28;20389;-64
2022/01/17 02:10:58;;;;;;;10.00;2.75;;;8.20;98.20;;;;;;5013818;28;20037;-64
2022/01/17 02:13:25;;;;;;;8.13;3.20;;;8.10;98.10;;;;;;5011766;28;20054;-64
2022/01/17 02:15:52;;;;;;;7.85;2.55;;;8.10;98.20;;;;;;5030275;28;20033;-64
2022/01/17 02:18:22;;;;;;;6.35;2.05;;;8.10;98.30;;;;;;5026903;28;20037;-64
2022/01/17 02:21:09;;;;;;;6.53;2.63;;;8.00;98.40;;;;;;5016408;28;20033;-64
2022/01/17 02:23:33;;;;;;;6.25;2.95;;;8.00;98.50;;;;;;5029357;28;20029;-64
2022/01/17 02:25:58;;;;;;;7.97;1.80;;;7.90;98.10;;;;;;5025322;28;20032;-64
2022/01/17 02:28:24;;;;;;;12.85;2.30;;;7.80;98.20;;;;;;5029791;28;20498;-63
2022/01/17 02:30:50;;;;;;;6.50;2.17;;;7.80;98.10;;;;;;5027565;28;20030;-63
2022/01/17 02:33:15;;;;;;;11.98;2.30;;;7.80;98.00;;;;;;5025659;28;20021;-65
2022/01/17 02:35:46;;;;;;;10.68;3.35;;;7.80;97.80;;;;;;5011622;28;20816;-64
2022/01/17 02:38:11;;;;;;;5.80;1.95;;;7.70;97.60;;;;;;5027940;28;20025;-65
2022/01/17 02:40:37;;;;;;;4.93;2.08;;;7.70;97.40;;;;;;5029950;28;20035;-63
2022/01/17 02:43:05;;;;;;;10.90;2.30;;;7.70;97.30;;;;;;5025941;28;20026;-64
2022/01/17 02:45:37;;;;;;;10.18;2.10;;;7.70;97.10;;;;;;5030831;28;20041;-64
2022/01/17 02:48:06;;;;;;;9.82;2.92;;;7.70;97.20;;;;;;5024127;28;20029;-64
2022/01/17 02:50:33;;;;;;;7.10;1.70;;;7.70;97.10;;;;;;5040716;28;20057;-64
2022/01/17 02:53:00;;;;;;;5.95;2.60;;;7.80;97.10;;;;;;5029420;28;20029;-64
2022/01/17 02:55:26;;;;;;;9.32;2.45;;;7.80;97.00;;;;;;5030833;28;20042;-64
2022/01/17 02:57:51;;;;;;;4.13;1.35;;;7.80;96.90;;;;;;5029974;28;20060;-63
2022/01/17 03:00:17;;;;;;;6.70;1.83;;;7.80;96.70;;;;;;5019188;28;20045;-64
2022/01/17 03:02:46;;;;;;;7.05;1.90;;;7.80;96.70;;;;;;5016218;28;20079;-63
2022/01/17 03:05:12;;;;;;;8.73;1.80;;;7.80;96.40;;;;;;5020973;28;20037;-64
2022/01/17 03:07:37;;;;;;;9.63;1.88;;;7.80;96.40;;;;;;5026871;28;20113;-63
2022/01/17 03:10:06;;;;;;;4.25;2.28;;;7.80;96.30;;;;;;5023878;28;20402;-64
2022/01/17 03:12:31;;;;;;;5.30;1.70;;;7.80;96.30;;;;;;5026122;28;20108;-64
2022/01/17 03:14:57;;;;;;;6.70;1.90;;;7.80;96.10;;;;;;5035118;28;20121;-64
2022/01/17 03:17:23;;;;;;;6.95;1.90;;;7.80;96.10;;;;;;5032983;28;20071;-64
2022/01/17 03:19:49;;;;;;;4.97;1.60;;;7.90;96.00;;;;;;5015433;28;20033;-63
2022/01/17 03:22:14;;;;;;;7.60;1.63;;;7.80;96.00;;;;;;5022713;28;20010;-64
2022/01/17 03:24:40;;;;;;;6.65;2.17;;;7.90;95.90;;;;;;5034593;28;20124;-63
2022/01/17 03:27:05;;;;;;;12.13;2.00;;;7.90;96.00;;;;;;5032517;28;20060;-64
2022/01/17 03:29:31;;;;;;;5.95;1.73;;;7.90;95.80;;;;;;5018492;28;20502;-63
2022/01/17 03:31:56;;;;;;;9.88;2.03;;;7.90;95.80;;;;;;5026858;28;20033;-64
2022/01/17 03:34:22;;;;;;;6.97;2.00;;;7.90;95.80;;;;;;5020503;28;20033;-65
2022/01/17 03:36:48;;;;;;;7.82;2.20;;;8.00;95.70;;;;;;5015327;28;20112;-65
2022/01/17 03:39:14;;;;;;;7.35;2.28;;;8.00;95.60;;;;;;5026057;28;20123;-64
2022/01/17 03:41:40;;;;;;;7.38;2.53;;;7.90;95.50;;;;;;5032877;28;20048;-64
2022/01/17 03:44:06;;;;;;;8.02;2.30;;;7.90;95.30;;;;;;5023594;28;20039;-64
2022/01/17 03:46:32;;;;;;;9.82;2.58;;;7.90;95.30;;;;;;5017441;28;20033;-63
2022/01/17 03:48:57;;;;;;;5.22;2.03;;;7.90;95.20;;;;;;5024613;28;20036;-64
2022/01/17 03:51:23;;;;;;;14.40;3.72;;;7.90;95.10;;;;;;5031112;28;20038;-63
2022/01/17 03:53:48;;;;;;;10.38;2.47;;;7.90;95.20;;;;;;5026953;28;20029;-64
2022/01/17 03:56:14;;;;;;;10.23;2.45;;;7.90;95.20;;;;;;5014170;28;20076;-64
2022/01/17 03:58:39;;;;;;;8.77;2.22;;;7.90;95.00;;;;;;5034341;28;20025;-63
2022/01/17 04:01:06;;;;;;;10.32;2.28;;;7.90;95.00;;;;;;5031785;28;20029;-64
2022/01/17 04:03:32;;;;;;;6.50;1.77;;;7.90;95.10;;;;;;5033167;28;20396;-64
2022/01/17 04:05:57;;;;;;;7.80;2.88;;;7.90;95.10;;;;;;5033258;28;20026;-64
2022/01/17 04:08:23;;;;;;;7.00;1.73;;;7.90;95.10;;;;;;5031894;28;20055;-64
2022/01/17 04:10:48;;;;;;;6.95;2.08;;;7.90;95.10;;;;;;5033512;28;20032;-64
2022/01/17 04:13:14;;;;;;;5.95;2.78;;;7.90;95.40;;;;;;5032094;28;20113;-64
2022/01/17 04:15:40;;;;;;;8.82;2.20;;;7.90;95.20;;;;;;5031124;28;20025;-64
2022/01/17 04:18:09;;;;;;;10.43;2.60;;;7.90;95.10;;;;;;5017193;28;20113;-64
2022/01/17 04:20:36;;;;;;;16.80;3.72;;;7.90;95.20;;;;;;5013677;28;20026;-64
2022/01/17 04:23:08;;;;;;;9.32;2.42;;;7.90;95.10;;;;;;5013901;28;20113;-64
2022/01/17 04:25:36;;;;;;;11.98;2.17;;;7.90;95.10;;;;;;5011959;28;20045;-64
2022/01/17 04:28:03;;;;;;;8.63;1.85;;;7.90;95.20;;;;;;5014118;28;20025;-63
2022/01/17 04:30:29;;;;;;;6.15;2.15;;;8.00;95.30;;;;;;5027840;28;20040;-63
2022/01/17 04:32:55;;;;;;;6.90;1.80;;;7.90;95.30;;;;;;5030286;28;20112;-64
2022/01/17 04:35:21;;;;;;;9.32;2.20;;;7.80;95.30;;;;;;5033121;28;20104;-63
2022/01/17 04:37:49;;;;;;;10.02;3.72;;;7.80;95.40;;;;;;5020726;28;20037;-63
2022/01/17 04:40:15;;;;;;;7.32;1.98;;;7.80;95.50;;;;;;5013617;28;20045;-63
2022/01/17 04:42:45;;;;;;;8.15;2.33;;;7.80;95.60;;;;;;5014647;28;20037;-63
2022/01/17 04:45:13;;;;;;;10.93;2.92;;;7.80;95.70;;;;;;5013213;28;20111;-64
2022/01/17 04:47:40;;;;;;;8.98;2.50;;;7.80;95.80;;;;;;5024310;28;20477;-64
2022/01/17 04:50:08;;;;;;;7.60;2.70;;;7.80;95.90;;;;;;5033133;28;20044;-64
2022/01/17 04:52:35;;;;;;;7.72;1.67;;;7.80;95.90;;;;;;5023527;28;20385;-64
2022/01/17 04:55:02;;;;;;;9.07;2.00;;;7.80;96.00;;;;;;5013613;28;20061;-64
2022/01/17 04:57:28;;;;;;;4.97;1.67;;;7.80;96.10;;;;;;5019469;28;20464;-64
2022/01/17 04:59:54;;;;;;;10.55;2.10;;;7.80;96.10;;;;;;5028634;28;20152;-64
2022/01/17 05:02:19;;;;;;;13.70;2.50;;;7.80;96.50;;;;;;5013353;28;20018;-63
2022/01/17 05:04:45;;;;;;;9.75;2.20;;;7.80;96.20;;;;;;5014152;28;20460;-64
2022/01/17 05:07:12;;;;;;;5.43;1.95;;;7.80;96.20;;;;;;5030860;28;20018;-65
2022/01/17 05:09:41;;;;;;;7.15;3.17;;;7.80;96.30;;;;;;5032707;28;20048;-64
2022/01/17 05:12:07;;;;;;;9.25;2.80;;;7.80;96.40;;;;;;5020870;28;20045;-64
2022/01/17 05:14:33;;;;;;;8.85;2.03;;;7.80;96.40;;;;;;5032704;28;20079;-65
2022/01/17 05:17:05;;;;;;;7.97;2.00;;;7.80;96.40;;;;;;5029262;28;20022;-65
2022/01/17 05:19:49;;;;;;;10.02;2.22;;;7.90;96.50;;;;;;5032324;28;20029;-65
2022/01/17 05:22:18;;;;;;;9.27;2.25;;;7.80;96.40;;;;;;5020735;28;20022;-64
2022/01/17 05:24:45;;;;;;;7.63;2.13;;;7.80;96.40;;;;;;5032338;28;20103;-64
2022/01/17 05:27:11;;;;;;;8.90;2.33;;;7.80;96.40;;;;;;5028968;28;20423;-64
2022/01/17 05:29:37;;;;;;;5.35;1.75;;;7.80;96.40;;;;;;5031649;28;20060;-64
2022/01/17 05:32:03;;;;;;;5.93;1.75;;;7.90;96.50;;;;;;5030293;28;20033;-64
2022/01/17 05:34:28;;;;;;;8.27;2.08;;;7.80;96.40;;;;;;5032344;28;20025;-63
2022/01/17 05:36:54;;;;;;;6.53;2.38;;;7.90;96.70;;;;;;5018580;28;20422;-64
2022/01/17 05:39:19;;;;;;;9.27;2.22;;;7.90;96.50;;;;;;5012530;28;20022;-64
2022/01/17 05:41:45;;;;;;;5.38;3.13;;;7.90;96.50;;;;;;5022404;28;20021;-64
2022/01/17 05:44:11;;;;;;;7.85;2.22;;;7.90;96.50;;;;;;5032048;28;20508;-64
2022/01/17 05:46:36;;;;;;;4.70;2.70;;;7.90;96.50;;;;;;5029896;28;20606;-64
2022/01/17 05:49:02;;;;;;;9.07;1.90;;;7.90;96.60;;;;;;5030718;28;20465;-64
2022/01/17 05:51:27;;;;;;;10.90;2.42;;;7.90;96.80;;;;;;5024986;28;20073;-64
2022/01/17 05:53:52;;;;;;;5.53;1.55;;;7.90;96.60;;;;;;5031421;28;20028;-64
2022/01/17 05:56:18;;;;;;;6.45;2.15;;;7.90;96.60;;;;;;5030005;28;20121;-64
2022/01/17 05:58:43;;;;;;;7.85;2.30;;;7.90;96.70;;;;;;5012082;28;20022;-64
2022/01/17 06:01:10;;;;;;;7.65;1.83;;;7.90;96.70;;;;;;5026152;28;20037;-64
2022/01/17 06:03:36;;;;;;;10.07;2.10;;;7.90;96.70;;;;;;5014740;28;20045;-64
2022/01/17 06:06:03;;;;;;;12.18;2.38;;;8.00;96.70;;;;;;5031630;28;20034;-64
2022/01/17 06:08:29;;;;;;;7.15;2.05;;;8.00;96.70;;;;;;5030977;28;20025;-64
2022/01/17 06:10:55;;;;;;;7.57;2.40;;;8.00;96.70;;;;;;5030324;28;20040;-64
2022/01/17 06:13:20;;;;;;;7.30;2.03;;;7.90;96.80;;;;;;5012629;28;20033;-64
2022/01/17 06:15:46;;;;;;;9.23;2.00;;;8.00;96.80;;;;;;5020676;28;20116;-65
2022/01/17 06:18:11;;;;;;;11.68;2.70;;;8.00;96.80;;;;;;5030077;28;20408;-64
2022/01/17 06:20:37;;;;;;;7.40;2.17;;;7.90;96.90;;;;;;5019731;28;20025;-64
2022/01/17 06:23:02;;;;;;;8.90;2.65;;;8.00;97.00;;;;;;5029184;28;20029;-64
2022/01/17 06:25:28;;;;;;;9.60;2.22;;;7.90;97.30;;;;;;5030213;28;20691;-65
2022/01/17 06:27:53;;;;;;;8.85;2.47;;;7.90;97.20;;;;;;5029934;28;20030;-64
2022/01/17 06:30:19;;;;;;;7.55;1.90;;;8.00;97.30;;;;;;5031530;28;20037;-64
2022/01/17 06:32:44;;;;;;;9.80;2.40;;;7.90;97.50;;;;;;5018772;28;20457;-64
2022/01/17 06:35:11;;;;;;;8.75;1.90;;;7.90;97.80;;;;;;5010757;28;20040;-64
2022/01/17 06:37:39;;;;;;;6.63;1.80;;;7.90;97.80;;;;;;5018766;28;20044;-64
2022/01/17 06:40:07;;;;;;;9.40;2.15;;;7.80;97.80;;;;;;5030961;28;20039;-64
2022/01/17 06:42:33;;;;;;;7.68;1.80;;;7.90;98.00;;;;;;5025019;28;20014;-64
2022/01/17 06:45:03;;;;;;;7.40;2.22;;;7.90;98.10;;;;;;5011411;28;20042;-64
2022/01/17 06:47:33;;;;;;;10.65;2.65;;;7.80;98.20;;;;;;5026547;28;20026;-64
2022/01/17 06:49:58;;;;;;;3.83;1.88;;;7.80;98.40;;;;;;5011228;28;20037;-63
2022/01/17 06:52:24;;;;;;;8.52;2.65;;;7.80;98.40;;;;;;5028110;28;20021;-65
2022/01/17 06:54:52;;;;;;;4.45;1.70;;;7.80;98.60;;;;;;5029171;28;20036;-65
2022/01/17 06:57:18;;;;;;;10.55;1.83;;;7.70;98.70;;;;;;5029599;28;20125;-66
2022/01/17 06:59:43;;;;;;;7.55;1.83;;;7.70;98.80;;;;;;5030691;28;20140;-66
2022/01/17 07:02:09;;;;;;;8.63;2.47;;;7.70;99.00;;;;;;5025975;28;20025;-64
2022/01/17 07:04:34;;;;;;;8.07;1.98;;;7.70;99.00;;;;;;5011703;28;20022;-66
2022/01/17 07:07:01;;;;;;;5.03;2.17;;;7.70;99.00;;;;;;5028716;28;20157;-66
2022/01/17 07:09:29;;;;;;;4.10;1.90;;;7.70;99.00;;;;;;5019223;28;20030;-66
2022/01/17 07:11:58;;;;;;;4.60;2.00;;;7.70;99.20;;;;;;5013565;28;20030;-66
2022/01/17 07:14:28;;;;;;;6.63;1.88;;;7.60;99.30;;;;;;5020206;28;20095;-66
2022/01/17 07:16:54;;;;;;;10.98;1.83;;;7.70;99.40;;;;;;5028298;28;20018;-66
2022/01/17 07:19:19;;;;;;;8.13;2.28;;;7.60;99.50;;;;;;5031000;28;20485;-66
2022/01/17 07:21:45;;;;;;;6.75;1.90;;;7.60;99.40;;;;;;5014169;28;20064;-64
2022/01/17 07:24:11;;;;;;;11.80;2.17;;;7.60;99.50;;;;;;5009825;28;20046;-63
2022/01/17 07:26:36;;;;;;;8.20;1.80;;;7.60;99.70;;;;;;5012200;28;20055;-63
2022/01/17 07:29:05;;;;;;;7.07;2.88;;;7.60;99.80;;;;;;5017088;28;20377;-63
2022/01/17 07:31:32;;;;;;;6.13;2.00;;;7.60;99.80;;;;;;5020707;28;20025;-63
2022/01/17 07:33:59;;;;;;;7.75;1.80;;;7.70;99.90;;;;;;5022483;28;20057;-63
2022/01/17 07:36:24;;;;;;;13.77;3.55;;;7.70;99.90;;;;;;5025200;28;20489;-63
2022/01/17 07:38:50;;;;;;;9.13;2.20;;;7.80;99.80;;;;;;5028439;28;20044;-63
2022/01/17 07:41:16;;;;;;;9.52;2.45;;;7.80;99.80;;;;;;5024885;28;20022;-63
2022/01/17 07:43:42;;;;;;;8.32;2.63;;;7.80;99.70;;;;;;5011959;28;20025;-63
2022/01/17 07:46:18;;;;;;;6.68;2.13;;;7.90;99.60;;;;;;5018277;28;20034;-62
2022/01/17 07:48:58;;;;;;;11.52;2.85;;;7.90;99.60;;;;;;5014058;28;20109;-63
2022/01/17 07:51:25;;;;;;;7.35;2.40;;;7.90;99.60;;;;;;5024915;28;20038;-63
2022/01/17 07:53:52;;;;;;;10.52;2.42;;;7.90;99.70;;;;;;5033441;28;20064;-63
2022/01/17 07:56:18;;;;;;;8.10;2.15;;;8.00;99.70;;;;;;5020962;28;20034;-63
2022/01/17 07:58:44;;;;;;;12.00;2.78;;;8.00;99.60;;;;;;5029768;28;20040;-62
2022/01/17 08:01:10;;;;;;;6.60;2.40;;;8.00;99.60;;;;;;5031565;28;20046;-62
2022/01/17 08:03:35;;;;;;;5.70;2.00;;;8.10;99.60;;;;;;5013469;28;20030;-62
2022/01/17 08:06:01;;;;;;;5.28;1.90;;;8.00;99.80;;;;;;5017007;28;20584;-62
2022/01/17 08:08:27;;;;;;;7.85;1.98;;;8.10;99.60;;;;;;5022035;28;20029;-62
2022/01/17 08:10:53;;;;;;;5.70;2.83;;;8.10;99.60;;;;;;5032643;28;20052;-63
2022/01/17 08:13:18;;;;;;;11.77;3.95;;;8.00;99.70;;;;;;5030610;28;20030;-63
2022/01/17 08:15:45;;;;;;;8.45;3.20;;;8.10;99.70;;;;;;5032764;28;20036;-62
2022/01/17 08:18:11;;;;;;;10.93;1.90;;;8.10;99.70;;;;;;5022225;28;20033;-62
2022/01/17 08:20:37;;;;;;;8.60;1.83;;;8.10;99.70;;;;;;5021660;28;20060;-62
2022/01/17 08:23:03;;;;;;;6.47;2.05;;;8.10;99.70;;;;;;5020082;28;20493;-62
2022/01/17 08:25:28;;;;;;;5.30;2.00;;;8.10;99.80;;;;;;5013440;28;20389;-62
2022/01/17 08:27:54;;;;;;;9.80;2.42;;;8.10;99.80;;;;;;5025922;28;20022;-63
2022/01/17 08:30:19;;;;;;;6.82;2.67;;;8.10;99.90;;;;;;5032187;28;20440;-63
2022/01/17 08:32:45;;;;;;;20.98;3.50;;;8.10;99.90;;;;;;5029525;28;20026;-62
2022/01/17 08:35:11;;;;;;;276.83;43.03;;;8.10;99.90;;;;;;5032342;28;20101;-62
2022/01/17 08:37:37;;;;;;;157.65;22.95;;;8.10;99.90;;;;;;5026928;28;20083;-63
2022/01/17 08:40:05;;;;;;;329.73;50.50;;;8.20;99.90;;;;;;5023142;28;20026;-63
2022/01/17 08:42:33;;;;;;;139.05;24.85;;;8.20;99.90;;;;;;5025985;28;20092;-63
2022/01/17 08:44:59;;;;;;;269.05;39.67;;;8.20;99.90;;;;;;5022677;28;20029;-63
2022/01/17 08:47:25;;;;;;;22.73;4.13;;;8.20;99.90;;;;;;5030322;28;20060;-63
2022/01/17 08:49:51;;;;;;;61.20;9.18;;;8.20;99.90;;;;;;5025881;28;20028;-61
2022/01/17 08:52:20;;;;;;;169.70;29.85;;;8.10;99.90;;;;;;5026506;28;20029;-62
2022/01/17 08:54:46;;;;;;;40.90;8.45;;;8.20;99.90;;;;;;5028500;28;20451;-62
2022/01/17 08:57:12;;;;;;;197.65;31.23;;;8.10;99.90;;;;;;5015245;28;20026;-62
2022/01/17 08:59:38;;;;;;;89.93;12.57;;;8.10;99.90;;;;;;5023637;28;20048;-64
2022/01/17 09:02:04;;;;;;;36.15;5.95;;;8.10;99.90;;;;;;5029451;28;20036;-63
2022/01/17 09:04:29;;;;;;;564.35;98.05;;;8.10;99.90;;;;;;5027674;28;20022;-64
2022/01/17 09:06:55;;;;;;;442.25;64.82;;;8.10;99.90;;;;;;5021390;28;20159;-63
2022/01/17 09:09:20;;;;;;;364.77;51.33;;;8.10;99.90;;;;;;5029603;28;20057;-63
2022/01/17 09:11:46;;;;;;;74.72;13.82;;;8.10;99.90;;;;;;5013402;28;20033;-63
2022/01/17 09:14:11;;;;;;;36.28;6.03;;;8.10;99.90;;;;;;5013225;28;20029;-63
2022/01/17 09:16:37;;;;;;;41.10;5.90;;;8.10;99.90;;;;;;5028556;28;20042;-63
2022/01/17 09:19:04;;;;;;;7.72;2.33;;;8.20;99.90;;;;;;5017504;28;20377;-63
2022/01/17 09:21:31;;;;;;;48.80;5.38;;;8.10;99.90;;;;;;5014412;28;20045;-63
2022/01/17 09:23:58;;;;;;;15.50;3.28;;;8.20;99.90;;;;;;5018293;28;20033;-63
2022/01/17 09:26:25;;;;;;;10.40;2.20;;;8.20;99.90;;;;;;5018479;28;20030;-63
2022/01/17 09:28:52;;;;;;;32.53;5.50;;;8.10;99.90;;;;;;5027092;28;20036;-62
2022/01/17 09:31:17;;;;;;;14.82;3.60;;;8.20;99.90;;;;;;5026204;28;20044;-62
2022/01/17 09:33:43;;;;;;;15.52;3.58;;;8.20;99.90;;;;;;5015715;28;20030;-63
2022/01/17 09:36:08;;;;;;;27.48;5.93;;;8.10;99.90;;;;;;5017973;28;20061;-63
2022/01/17 09:38:34;;;;;;;16.80;5.15;;;8.10;99.90;;;;;;5012955;28;20473;-63
2022/01/17 09:41:01;;;;;;;37.00;7.68;;;8.10;99.90;;;;;;5028562;28;20063;-63
2022/01/17 09:43:27;;;;;;;166.32;26.60;;;8.20;99.90;;;;;;5042969;28;20026;-63
2022/01/17 09:45:53;;;;;;;586.83;101.18;;;8.10;99.90;;;;;;5030289;28;20861;-63
2022/01/17 09:48:21;;;;;;;43.20;9.38;;;8.10;99.90;;;;;;5015309;28;20026;-62
2022/01/17 09:51:01;;;;;;;22.48;4.63;;;8.10;99.90;;;;;;5011897;28;20112;-63
2022/01/17 09:53:28;;;;;;;7.30;2.30;;;8.00;99.90;;;;;;5017829;28;20022;-62
2022/01/17 09:55:58;;;;;;;8.48;3.00;;;8.00;99.90;;;;;;5012161;28;20041;-63
2022/01/17 09:58:24;;;;;;;5.95;1.70;;;7.90;99.90;;;;;;5016139;28;20034;-62
2022/01/17 10:00:49;;;;;;;10.73;3.28;;;7.90;99.90;;;;;;5030929;28;20505;-63
2022/01/17 10:03:18;;;;;;;58.72;10.55;;;7.70;99.90;;;;;;5029257;28;20029;-63
2022/01/17 10:05:44;;;;;;;12.48;2.80;;;7.50;99.90;;;;;;5031057;28;20037;-61
2022/01/17 10:08:17;;;;;;;9.88;2.65;;;7.30;99.90;;;;;;5027866;28;20032;-62
2022/01/17 10:10:51;;;;;;;39.90;5.45;;;7.10;99.90;;;;;;5029007;28;20040;-62
2022/01/17 10:13:23;;;;;;;4.50;2.10;;;7.10;99.90;;;;;;5023890;28;20030;-63
2022/01/17 10:16:01;;;;;;;193.07;26.08;;;7.00;99.90;;;;;;5047342;28;20063;-63
2022/01/17 10:18:48;;;;;;;1329.20;257.83;;;7.00;99.90;;;;;;5023571;28;20065;-63
2022/01/17 10:21:33;;;;;;;321.88;44.95;;;7.10;99.90;;;;;;5029148;28;20120;-63
2022/01/17 10:27:16;;;;;;;251.32;38.00;;;7.20;99.90;;;;;;5019452;28;20072;-63
2022/01/17 10:30:14;;;;;;;224.57;37.88;;;7.20;99.90;;;;;;5021823;28;20037;-63
2022/01/17 10:35:19;;;;;;;259.92;40.97;;;7.30;99.90;;;;;;5030427;28;20048;-63
2022/01/17 10:37:59;;;;;;;89.32;15.65;;;7.40;99.90;;;;;;5023225;28;20079;-63
2022/01/17 10:40:31;;;;;;;33.58;6.55;;;7.50;99.90;;;;;;5027327;28;20037;-63
2022/01/17 10:42:58;;;;;;;272.02;38.20;;;7.50;99.90;;;;;;5022542;28;20026;-63
2022/01/17 10:45:33;;;;;;;17.02;4.55;;;7.50;99.90;;;;;;5022883;28;20095;-62
2022/01/17 10:48:01;;;;;;;35.95;5.45;;;7.50;99.90;;;;;;5016251;28;20026;-63
2022/01/17 10:50:31;;;;;;;42.40;10.20;;;7.60;99.90;;;;;;5029853;28;20037;-64
2022/01/17 10:53:03;;;;;;;389.77;63.42;;;7.50;99.90;;;;;;5015061;28;20050;-63
2022/01/17 10:55:30;;;;;;;110.60;14.98;;;7.50;99.90;;;;;;5010658;28;20029;-63
2022/01/17 10:58:02;;;;;;;257.02;41.17;;;7.60;99.90;;;;;;5015974;28;20048;-63
2022/01/17 11:00:31;;;;;;;42.88;7.15;;;7.60;99.90;;;;;;5029181;28;20061;-63
2022/01/17 11:03:06;;;;;;;8.45;2.33;;;7.60;99.90;;;;;;5028863;28;20048;-63
2022/01/17 11:05:32;;;;;;;55.60;10.05;;;7.50;99.30;;;;;;5026834;28;20060;-63
2022/01/17 11:08:01;;;;;;;18.38;3.90;;;7.40;99.50;;;;;;5027062;28;20122;-63
2022/01/17 11:10:35;;;;;;;9.35;2.33;;;7.40;99.00;;;;;;5025479;28;20374;-63
2022/01/17 11:13:03;;;;;;;9.98;2.92;;;7.30;98.50;;;;;;5015622;28;20026;-63
2022/01/17 11:15:32;;;;;;;6.20;2.75;;;7.20;98.30;;;;;;5024874;28;20029;-63
2022/01/17 11:18:09;;;;;;;7.20;2.70;;;7.00;98.00;;;;;;5022154;28;20075;-63
2022/01/17 11:20:35;;;;;;;6.15;2.45;;;6.70;98.40;;;;;;5023380;28;20033;-63
2022/01/17 11:23:02;;;;;;;13.50;2.50;;;6.40;98.10;;;;;;5033637;28;20171;-62
2022/01/17 11:25:33;;;;;;;3.85;2.08;;;6.20;98.40;;;;;;5014435;28;20050;-62
2022/01/17 11:28:01;;;;;;;10.23;2.63;;;5.90;97.90;;;;;;5019770;28;20026;-62
2022/01/17 11:30:27;;;;;;;6.75;2.45;;;5.80;98.30;;;;;;5029309;28;20087;-64
2022/01/17 11:32:55;;;;;;;5.82;2.63;;;5.70;98.20;;;;;;5023113;28;20087;-64
2022/01/17 11:35:22;;;;;;;7.95;2.22;;;5.50;98.40;;;;;;5033234;28;20353;-64
2022/01/17 11:37:51;;;;;;;9.57;3.33;;;5.40;98.30;;;;;;5021593;28;20069;-64
2022/01/17 11:40:22;;;;;;;6.25;2.58;;;5.20;98.60;;;;;;5032726;28;20043;-63
2022/01/17 11:42:51;;;;;;;7.63;3.55;;;5.00;98.70;;;;;;5031470;28;20033;-63
2022/01/17 11:45:22;;;;;;;9.13;2.75;;;4.90;98.90;;;;;;5028354;28;20422;-63
2022/01/17 11:47:49;;;;;;;5.40;2.40;;;4.90;99.00;;;;;;5026846;28;20353;-65
2022/01/17 11:50:32;;;;;;;10.75;2.95;;;4.90;99.30;;;;;;5017795;28;20025;-63
2022/01/17 11:53:20;;;;;;;392.80;72.13;;;4.90;99.10;;;;;;5033558;28;20676;-63
2022/01/17 11:55:47;;;;;;;73.28;14.02;;;4.80;99.20;;;;;;5022521;28;20034;-62
2022/01/17 11:58:16;;;;;;;642.42;127.72;;;4.80;99.20;;;;;;5020251;28;20469;-64
2022/01/17 12:00:41;;;;;;;25.48;6.13;;;4.90;99.60;;;;;;5029970;28;20061;-63
2022/01/17 12:03:17;;;;;;;18.27;3.47;;;4.80;99.30;;;;;;5027471;28;20034;-64
2022/01/17 12:05:43;;;;;;;13.52;3.00;;;4.90;99.20;;;;;;5029297;28;20048;-63
2022/01/17 12:08:09;;;;;;;16.27;3.47;;;4.90;99.00;;;;;;5031889;28;20105;-63
2022/01/17 12:10:42;;;;;;;7.00;1.80;;;5.00;98.90;;;;;;5014590;28;20037;-65
2022/01/17 12:13:19;;;;;;;9.40;2.88;;;5.00;98.60;;;;;;5028275;28;20084;-64
2022/01/17 12:16:13;;;;;;;12.25;2.70;;;5.10;98.30;;;;;;5015998;28;20041;-64
2022/01/17 12:18:43;;;;;;;33.00;5.18;;;5.10;97.90;;;;;;5013545;28;20544;-64
2022/01/17 12:21:40;;;;;;;27.98;5.82;;;5.20;98.40;;;;;;5023727;28;20087;-64
2022/01/17 12:24:15;;;;;;;298.15;45.22;;;5.40;98.50;;;;;;5014982;28;20381;-64
2022/01/17 12:26:42;;;;;;;884.78;169.15;;;5.40;97.90;;;;;;5013814;28;20104;-64
2022/01/17 12:29:08;;;;;;;25.98;7.53;;;5.50;98.10;;;;;;5031331;28;20475;-64
2022/01/17 12:31:47;;;;;;;83.28;12.80;;;5.50;97.50;;;;;;5015314;28;20026;-64
2022/01/17 12:34:23;;;;;;;362.55;54.10;;;5.60;96.70;;;;;;5019855;28;20024;-64
2022/01/17 12:36:49;;;;;;;475.15;78.22;;;5.60;96.90;;;;;;5017467;28;20124;-65
2022/01/17 12:39:22;;;;;;;284.80;64.13;;;5.70;96.70;;;;;;5027149;28;20025;-64
2022/01/17 12:41:59;;;;;;;323.38;52.80;;;5.80;96.70;;;;;;5031617;28;20034;-65
2022/01/17 12:44:27;;;;;;;65.07;14.23;;;5.90;96.70;;;;;;5017082;28;20069;-67
2022/01/17 12:46:58;;;;;;;62.58;11.32;;;5.90;94.70;;;;;;5027685;28;20043;-65
2022/01/17 12:49:24;;;;;;;1669.88;297.10;;;5.90;94.10;;;;;;5016673;28;20094;-65
2022/01/17 12:51:52;;;;;;;667.65;132.98;;;5.90;94.20;;;;;;5020351;28;20030;-64
2022/01/17 12:54:21;;;;;;;816.95;154.43;;;6.00;94.50;;;;;;5013308;28;20099;-65
2022/01/17 12:56:49;;;;;;;1090.72;206.68;;;6.00;94.50;;;;;;5032429;28;20033;-64
2022/01/17 12:59:18;;;;;;;398.70;68.97;;;6.10;94.10;;;;;;5032836;28;20030;-64
2022/01/17 13:01:49;;;;;;;489.27;89.82;;;6.20;94.20;;;;;;5032883;28;20026;-65
2022/01/17 13:04:16;;;;;;;569.55;85.65;;;6.20;92.50;;;;;;5032872;28;20032;-64
2022/01/17 13:06:44;;;;;;;44.63;10.05;;;6.20;93.50;;;;;;5032638;28;20041;-65